Time;durP1;ratioP1;P1;durP2;ratioP2;P2;SDS_P1;SDS_P2;PMS_P1;PMS_P2;Temp;Humidity;BMP_temperature;BMP_pressure;BME280_temperature;BME280_humidity;BME280_pressure;Samples;Min_cycle;Max_cycle;Signal;HPM_P1;HPM_P2
2022/09/22 00:01:11;;;;;;;18.45;9.43;;;;;;;9.60;100.00;102109.88;5046108;28;20124;-73
2022/09/22 00:03:40;;;;;;;23.25;9.10;;;;;;;9.59;100.00;102116.56;5051038;28;20048;-73
2022/09/22 00:06:13;;;;;;;22.60;9.85;;;;;;;9.59;100.00;102108.28;5048343;28;20059;-73
2022/09/22 00:08:42;;;;;;;19.80;9.50;;;;;;;9.57;100.00;102103.13;5042059;28;20045;-71
2022/09/22 00:11:18;;;;;;;18.30;9.40;;;;;;;9.58;100.00;102101.13;5049392;28;20066;-71
2022/09/22 00:13:50;;;;;;;20.23;8.80;;;;;;;9.60;100.00;102107.13;5049011;28;20059;-74
2022/09/22 00:16:23;;;;;;;16.45;9.45;;;;;;;9.52;100.00;102100.59;5049969;28;20052;-72
2022/09/22 00:18:50;;;;;;;22.50;9.88;;;;;;;9.55;100.00;102101.88;5048928;28;20056;-72
2022/09/22 00:21:19;;;;;;;18.70;9.55;;;;;;;9.50;100.00;102097.41;5049279;28;20063;-72
2022/09/22 00:23:46;;;;;;;17.38;9.13;;;;;;;9.53;100.00;102107.75;5048336;28;20157;-71
2022/09/22 00:26:16;;;;;;;18.38;8.50;;;;;;;9.48;100.00;102102.47;5047397;28;20952;-72
2022/09/22 00:28:45;;;;;;;18.05;9.60;;;;;;;9.50;100.00;102099.38;5048228;28;20044;-74
2022/09/22 00:31:15;;;;;;;20.58;9.80;;;;;;;9.48;100.00;102107.19;5047904;28;20049;-72
2022/09/22 00:33:45;;;;;;;19.05;9.55;;;;;;;9.47;100.00;102106.41;5048289;28;20068;-75
2022/09/22 00:36:12;;;;;;;20.27;9.68;;;;;;;9.45;100.00;102097.66;5050443;28;20080;-73
2022/09/22 00:38:40;;;;;;;17.63;9.40;;;;;;;9.42;100.00;102103.91;5051790;28;20059;-72
2022/09/22 00:41:14;;;;;;;21.13;9.68;;;;;;;9.42;100.00;102103.91;5048750;28;20052;-72
2022/09/22 00:43:45;;;;;;;17.85;9.85;;;;;;;9.42;100.00;102103.13;5043033;28;20052;-74
2022/09/22 00:46:23;;;;;;;19.00;9.93;;;;;;;9.38;100.00;102100.25;5048758;28;20060;-72
2022/09/22 00:48:58;;;;;;;20.13;9.40;;;;;;;9.35;100.00;102105.69;5043164;28;20048;-74
2022/09/22 00:51:31;;;;;;;18.45;10.23;;;;;;;9.32;100.00;102101.66;5047880;28;20056;-75
2022/09/22 00:53:59;;;;;;;19.17;9.13;;;;;;;9.30;100.00;102100.41;5047028;28;20055;-73
2022/09/22 00:56:44;;;;;;;22.25;9.98;;;;;;;9.27;100.00;102101.94;5050028;28;20134;-72
2022/09/22 00:59:18;;;;;;;18.45;9.55;;;;;;;9.24;100.00;102101.84;5048591;28;20052;-74
2022/09/22 01:01:45;;;;;;;17.35;9.57;;;;;;;9.16;100.00;102092.59;5049210;28;20078;-73
2022/09/22 01:04:12;;;;;;;19.98;11.10;;;;;;;9.18;100.00;102095.78;5047448;28;20048;-74
2022/09/22 01:06:40;;;;;;;22.65;9.57;;;;;;;9.17;100.00;102094.19;5033305;28;20052;-74
2022/09/22 01:09:07;;;;;;;21.35;9.75;;;;;;;9.15;100.00;102095.69;5047133;28;20543;-73
2022/09/22 01:11:36;;;;;;;17.70;8.93;;;;;;;9.14;100.00;102092.13;5045787;28;20048;-74
2022/09/22 01:14:08;;;;;;;17.70;9.43;;;;;;;9.11;100.00;102092.03;5048375;28;20048;-74
2022/09/22 01:16:44;;;;;;;17.92;8.77;;;;;;;9.06;100.00;102084.81;5052125;28;20052;-74
2022/09/22 01:19:44;;;;;;;21.95;9.50;;;;;;;9.03;100.00;102082.75;5047772;28;20048;-73
2022/09/22 01:22:35;;;;;;;16.33;8.80;;;;;;;9.06;100.00;102076.53;5054826;28;20048;-71
2022/09/22 01:25:36;;;;;;;22.10;9.90;;;;;;;9.03;100.00;102063.44;5058539;28;20064;-72
2022/09/22 01:28:09;;;;;;;17.30;9.05;;;;;;;9.02;100.00;102067.38;5056030;28;20049;-72
2022/09/22 01:30:55;;;;;;;22.52;9.77;;;;;;;9.04;100.00;102073.31;5058437;28;20044;-72
2022/09/22 01:33:41;;;;;;;17.48;9.50;;;;;;;8.98;100.00;102066.44;5055553;28;20101;-71
2022/09/22 01:36:22;;;;;;;20.55;10.35;;;;;;;8.97;100.00;102061.28;5056413;28;20501;-73
2022/09/22 01:39:14;;;;;;;21.88;9.82;;;;;;;8.95;100.00;102064.41;5055767;28;20428;-73
2022/09/22 01:41:51;;;;;;;21.10;9.93;;;;;;;8.94;100.00;102062.00;5054523;28;20048;-73
2022/09/22 01:44:31;;;;;;;19.30;9.85;;;;;;;8.88;100.00;102058.69;5058571;28;20053;-74
2022/09/22 01:47:06;;;;;;;17.77;9.77;;;;;;;8.87;100.00;102059.06;5067058;28;20064;-73
2022/09/22 01:49:37;;;;;;;20.92;10.27;;;;;;;8.80;100.00;102059.66;5053007;28;20070;-70
2022/09/22 01:52:13;;;;;;;19.50;10.38;;;;;;;8.79;100.00;102051.72;5065172;28;20053;-74
2022/09/22 01:54:44;;;;;;;17.67;9.20;;;;;;;8.79;100.00;102048.97;5062242;28;20136;-73
2022/09/22 01:57:35;;;;;;;21.15;9.68;;;;;;;8.76;100.00;102047.72;5065172;28;20813;-69
2022/09/22 02:00:05;;;;;;;24.45;10.63;;;;;;;8.74;100.00;102050.00;5058033;28;20057;-75
2022/09/22 02:02:41;;;;;;;18.38;10.30;;;;;;;8.72;100.00;102046.81;5058433;28;20053;-73
2022/09/22 02:05:14;;;;;;;17.95;10.85;;;;;;;8.69;100.00;102047.53;5063364;28;20479;-73
2022/09/22 02:07:47;;;;;;;18.15;9.77;;;;;;;8.72;100.00;102044.06;5059686;28;20382;-71
2022/09/22 02:10:19;;;;;;;17.90;10.32;;;;;;;8.67;100.00;102047.06;5058557;28;20068;-74
2022/09/22 02:12:48;;;;;;;17.90;9.57;;;;;;;8.68;100.00;102043.16;5059983;28;20048;-72
2022/09/22 02:18:09;;;;;;;23.02;10.73;;;;;;;8.62;100.00;102041.00;5062653;28;20109;-73
2022/09/22 02:20:36;;;;;;;22.60;10.95;;;;;;;8.52;100.00;102031.28;5051808;28;20048;-74
2022/09/22 02:23:03;;;;;;;18.63;9.70;;;;;;;8.57;100.00;102033.78;5066094;28;20476;-71
2022/09/22 02:25:30;;;;;;;17.27;9.25;;;;;;;8.55;100.00;102036.09;5070329;28;20056;-71
2022/09/22 02:27:57;;;;;;;18.08;9.43;;;;;;;8.47;100.00;102031.53;5062707;28;20060;-71
2022/09/22 02:30:25;;;;;;;18.83;10.18;;;;;;;8.40;100.00;102034.06;5066358;28;20048;-69
2022/09/22 02:32:54;;;;;;;19.70;10.30;;;;;;;8.37;100.00;102034.00;5059593;28;20104;-72
2022/09/22 02:35:25;;;;;;;19.63;10.50;;;;;;;8.40;100.00;102034.06;5057422;28;20056;-71
2022/09/22 02:38:16;;;;;;;20.85;10.35;;;;;;;8.38;100.00;102030.88;5064317;28;20459;-71
2022/09/22 02:40:56;;;;;;;19.20;10.45;;;;;;;8.37;100.00;102040.28;5054585;28;20109;-71
2022/09/22 02:43:38;;;;;;;19.73;10.68;;;;;;;8.36;100.00;102032.38;5060059;28;20045;-72
2022/09/22 02:46:17;;;;;;;21.30;10.13;;;;;;;8.36;100.00;102032.38;5060584;28;20053;-74
2022/09/22 02:49:00;;;;;;;16.55;9.52;;;;;;;8.32;100.00;102034.22;5068484;28;20095;-72
2022/09/22 02:51:31;;;;;;;23.45;10.20;;;;;;;8.32;100.00;102021.25;5067990;28;20048;-72
2022/09/22 02:53:57;;;;;;;18.98;10.32;;;;;;;8.34;100.00;102030.00;5072144;28;20048;-72
2022/09/22 02:56:24;;;;;;;19.88;9.77;;;;;;;8.29;100.00;102024.72;5073136;28;20052;-72
2022/09/22 02:58:50;;;;;;;17.52;10.07;;;;;;;8.27;100.00;102021.47;5066079;28;20048;-72
2022/09/22 03:01:23;;;;;;;19.92;10.57;;;;;;;8.30;100.00;102029.06;5072463;28;20048;-70
2022/09/22 03:03:50;;;;;;;18.33;10.52;;;;;;;8.27;100.00;102018.72;5064578;28;20048;-73
2022/09/22 03:06:17;;;;;;;19.50;10.43;;;;;;;8.29;100.00;102021.13;5066803;28;20061;-72
2022/09/22 03:08:43;;;;;;;20.13;10.38;;;;;;;8.27;100.00;102013.22;5067042;28;21242;-71
2022/09/22 03:11:10;;;;;;;21.08;10.50;;;;;;;8.27;100.00;102023.47;5072792;28;20048;-71
2022/09/22 03:13:36;;;;;;;19.02;9.82;;;;;;;8.24;100.00;102013.94;5072493;28;20053;-71
2022/09/22 03:16:03;;;;;;;21.73;10.43;;;;;;;8.26;100.00;102027.38;5073620;28;20664;-71
2022/09/22 03:18:29;;;;;;;29.63;11.02;;;;;;;8.21;100.00;102017.38;5072901;28;20133;-71
2022/09/22 03:20:56;;;;;;;20.75;10.60;;;;;;;8.18;100.00;102014.50;5064896;28;20044;-69
2022/09/22 03:23:22;;;;;;;19.58;10.90;;;;;;;8.22;100.00;102015.41;5068400;28;20058;-71
2022/09/22 03:25:49;;;;;;;20.48;10.98;;;;;;;8.16;100.00;102012.06;5068391;28;20513;-72
2022/09/22 03:28:15;;;;;;;21.83;11.05;;;;;;;8.14;100.00;102014.41;5072815;28;20052;-72
2022/09/22 03:30:43;;;;;;;19.83;11.25;;;;;;;8.11;100.00;102011.53;5065307;28;20141;-72
2022/09/22 03:33:10;;;;;;;20.70;11.10;;;;;;;8.07;100.00;102006.72;5066286;28;20059;-69
2022/09/22 03:35:36;;;;;;;20.77;10.23;;;;;;;8.09;100.00;102005.56;5067987;28;20052;-71
2022/09/22 03:38:03;;;;;;;21.92;11.15;;;;;;;8.07;100.00;102003.16;5073296;28;20048;-72
2022/09/22 03:40:29;;;;;;;21.90;11.30;;;;;;;8.07;100.00;101997.66;5065851;28;20056;-69
2022/09/22 03:42:56;;;;;;;22.73;11.35;;;;;;;8.04;100.00;102003.84;5067949;28;20049;-70
2022/09/22 03:45:23;;;;;;;19.90;11.07;;;;;;;8.00;100.00;101998.22;5067718;28;20059;-72
2022/09/22 03:47:49;;;;;;;22.00;11.50;;;;;;;7.97;100.00;102006.41;5063815;28;20049;-70
2022/09/22 03:50:16;;;;;;;25.05;11.88;;;;;;;7.94;100.00;101996.09;5065043;28;20067;-71
2022/09/22 03:52:43;;;;;;;18.83;11.15;;;;;;;7.94;100.00;102005.13;5062961;28;20044;-72
2022/09/22 03:55:10;;;;;;;23.42;11.93;;;;;;;7.88;100.00;101989.19;5066585;28;20057;-71
2022/09/22 03:57:38;;;;;;;21.42;12.18;;;;;;;7.92;100.00;101995.63;5059270;28;20064;-74
2022/09/22 04:00:06;;;;;;;22.13;10.80;;;;;;;7.92;100.00;101990.09;5069153;28;20547;-70
2022/09/22 04:02:32;;;;;;;24.25;11.15;;;;;;;7.88;100.00;101986.44;5061281;28;20052;-74
2022/09/22 04:04:58;;;;;;;20.75;10.88;;;;;;;7.85;100.00;101995.41;5060748;28;20471;-73
2022/09/22 04:07:25;;;;;;;20.50;10.93;;;;;;;7.82;100.00;101988.63;5069771;28;20044;-72
2022/09/22 04:09:52;;;;;;;23.55;10.63;;;;;;;7.85;100.00;101984.38;5061748;28;20059;-71
2022/09/22 04:12:18;;;;;;;24.85;11.65;;;;;;;7.83;100.00;101981.16;5061712;28;20068;-74
2022/09/22 04:14:45;;;;;;;24.58;13.05;;;;;;;7.83;100.00;101983.91;5066355;28;20048;-72
2022/09/22 04:17:12;;;;;;;24.80;12.30;;;;;;;7.83;100.00;101981.97;5066501;28;20044;-71
2022/09/22 04:19:38;;;;;;;23.25;11.43;;;;;;;7.82;100.00;101979.56;5068909;28;20056;-71
2022/09/22 04:22:05;;;;;;;24.88;11.32;;;;;;;7.78;100.00;101973.97;5053104;28;20057;-72
2022/09/22 04:24:31;;;;;;;22.13;11.43;;;;;;;7.78;100.00;101978.66;5069293;28;20052;-73
2022/09/22 04:26:58;;;;;;;23.15;11.10;;;;;;;7.75;100.00;101980.16;5059189;28;20062;-71
2022/09/22 04:29:44;;;;;;;23.15;12.55;;;;;;;7.73;100.00;101978.91;5057777;28;20044;-72
2022/09/22 04:32:11;;;;;;;21.73;11.38;;;;;;;7.75;100.00;101982.09;5065481;28;20060;-70
2022/09/22 04:34:38;;;;;;;20.25;11.25;;;;;;;7.71;100.00;101973.75;5061267;28;20105;-73
2022/09/22 04:37:04;;;;;;;20.33;10.05;;;;;;;7.68;100.00;101974.44;5058853;28;20057;-73
2022/09/22 04:39:31;;;;;;;19.58;10.77;;;;;;;7.75;100.00;101976.59;5057727;28;20048;-71
2022/09/22 04:41:57;;;;;;;20.13;10.85;;;;;;;7.75;100.00;101979.34;5055367;28;20056;-72
2022/09/22 04:44:24;;;;;;;21.33;10.55;;;;;;;7.71;100.00;101976.50;5053117;28;20052;-73
2022/09/22 04:46:50;;;;;;;23.75;12.23;;;;;;;7.70;100.00;101987.88;5068568;28;20060;-73
2022/09/22 04:49:17;;;;;;;22.58;10.68;;;;;;;7.69;100.00;101980.72;5060121;28;20086;-73
2022/09/22 04:51:44;;;;;;;20.02;11.02;;;;;;;7.66;100.00;101978.66;5067628;28;20051;-72
2022/09/22 04:54:10;;;;;;;20.88;10.43;;;;;;;7.65;100.00;101975.13;5066725;28;20079;-73
2022/09/22 04:56:37;;;;;;;19.42;10.88;;;;;;;7.62;100.00;101980.53;5063548;28;20082;-73
2022/09/22 04:59:03;;;;;;;20.58;11.38;;;;;;;7.62;100.00;101978.56;5067718;28;20060;-71
2022/09/22 05:01:30;;;;;;;22.23;10.90;;;;;;;7.62;100.00;101984.09;5057587;28;20045;-72
2022/09/22 05:03:56;;;;;;;27.08;11.60;;;;;;;7.60;100.00;101983.63;5064577;28;20052;-73
2022/09/22 05:06:23;;;;;;;21.67;11.45;;;;;;;7.62;100.00;101986.03;5061440;28;20060;-70
2022/09/22 05:08:49;;;;;;;25.13;11.98;;;;;;;7.61;100.00;101987.19;5062414;28;20061;-73
2022/09/22 05:11:16;;;;;;;21.63;11.55;;;;;;;7.56;100.00;101988.22;5059838;28;20413;-73
2022/09/22 05:13:42;;;;;;;23.60;11.27;;;;;;;7.45;100.00;101976.06;5055900;28;20049;-69
2022/09/22 05:16:08;;;;;;;20.23;10.95;;;;;;;7.54;100.00;101986.97;5057525;28;20056;-73
2022/09/22 05:18:35;;;;;;;22.80;11.82;;;;;;;7.51;100.00;101987.66;5063158;28;20049;-73
2022/09/22 05:21:02;;;;;;;19.33;11.02;;;;;;;7.47;100.00;101989.50;5065215;28;20051;-71
2022/09/22 05:23:30;;;;;;;25.23;12.35;;;;;;;7.45;100.00;101992.59;5061899;28;20139;-73
2022/09/22 05:25:57;;;;;;;23.17;11.70;;;;;;;7.46;100.00;101987.91;5068150;28;20109;-72
2022/09/22 05:28:23;;;;;;;22.60;11.88;;;;;;;7.47;100.00;101984.00;5053628;28;20053;-74
2022/09/22 05:30:50;;;;;;;21.13;11.88;;;;;;;7.50;100.00;101983.31;5059639;28;20056;-72
2022/09/22 05:33:17;;;;;;;22.77;12.68;;;;;;;7.50;100.00;101984.09;5056187;28;20059;-70
2022/09/22 05:35:44;;;;;;;24.05;12.05;;;;;;;7.49;100.00;101988.00;5061608;28;20543;-74
2022/09/22 05:38:10;;;;;;;19.92;10.77;;;;;;;7.44;100.00;101985.50;5062157;28;20122;-74
2022/09/22 05:40:37;;;;;;;20.85;10.93;;;;;;;7.40;100.00;101986.53;5060825;28;20045;-69
2022/09/22 05:43:04;;;;;;;22.58;11.50;;;;;;;7.37;100.00;101985.28;5061152;28;20059;-72
2022/09/22 05:45:30;;;;;;;23.23;11.75;;;;;;;7.42;100.00;101985.03;5056692;28;20410;-74
2022/09/22 05:47:57;;;;;;;20.40;11.25;;;;;;;7.49;100.00;101989.94;5067215;28;20044;-73
2022/09/22 05:50:23;;;;;;;23.38;11.88;;;;;;;7.52;100.00;101998.31;5059210;28;20048;-72
2022/09/22 05:52:50;;;;;;;21.67;11.93;;;;;;;7.54;100.00;101990.53;5063220;28;20074;-71
2022/09/22 05:55:16;;;;;;;20.50;11.15;;;;;;;7.53;100.00;101985.38;5059458;28;20520;-71
2022/09/22 05:57:43;;;;;;;20.88;11.88;;;;;;;7.60;100.00;101991.88;5063660;28;20106;-72
2022/09/22 06:00:11;;;;;;;23.67;11.85;;;;;;;7.60;100.00;101989.13;5064594;28;20056;-73
2022/09/22 06:02:39;;;;;;;20.65;11.20;;;;;;;7.63;100.00;101993.16;5055715;28;20588;-71
2022/09/22 06:05:06;;;;;;;21.48;11.65;;;;;;;7.68;100.00;101990.16;5055899;28;20077;-73
2022/09/22 06:07:32;;;;;;;22.73;11.77;;;;;;;7.70;100.00;101996.13;5059580;28;20040;-73
2022/09/22 06:09:59;;;;;;;23.50;12.13;;;;;;;7.73;100.00;101995.44;5059617;28;20052;-74
2022/09/22 06:12:25;;;;;;;25.48;12.13;;;;;;;7.78;100.00;101998.75;5064064;28;20052;-72
2022/09/22 06:14:52;;;;;;;19.63;11.65;;;;;;;7.82;100.00;102009.88;5062161;28;20052;-72
2022/09/22 06:17:18;;;;;;;22.00;11.63;;;;;;;7.84;100.00;101999.31;5062916;28;20055;-71
2022/09/22 06:19:48;;;;;;;23.80;12.57;;;;;;;7.85;100.00;101996.22;5062733;28;20052;-71
2022/09/22 06:22:16;;;;;;;26.13;13.52;;;;;;;7.89;100.00;101999.06;5066599;28;20049;-71
2022/09/22 06:24:43;;;;;;;22.55;11.25;;;;;;;7.94;100.00;101996.88;5067685;28;20056;-72
2022/09/22 06:27:10;;;;;;;22.38;11.88;;;;;;;8.00;100.00;102003.75;5068056;28;20517;-72
2022/09/22 06:29:36;;;;;;;25.30;12.02;;;;;;;8.04;100.00;101993.63;5067829;28;20048;-70
2022/09/22 06:32:06;;;;;;;22.65;11.93;;;;;;;8.11;100.00;101998.56;5068215;28;20139;-72
2022/09/22 06:34:35;;;;;;;25.38;12.55;;;;;;;8.17;100.00;101996.34;5064403;28;20044;-72
2022/09/22 06:37:01;;;;;;;27.15;12.02;;;;;;;8.24;100.00;102002.91;5067669;28;20075;-72
2022/09/22 06:39:28;;;;;;;22.27;13.15;;;;;;;8.30;100.00;101995.97;5068227;28;20071;-73
2022/09/22 06:41:55;;;;;;;23.38;13.13;;;;;;;8.39;100.00;101995.81;5067198;28;20052;-72
2022/09/22 06:44:21;;;;;;;23.23;13.35;;;;;;;8.46;100.00;102004.28;5065286;28;20048;-72
2022/09/22 06:46:48;;;;;;;22.58;13.07;;;;;;;8.54;100.00;102000.59;5059246;28;20048;-69
2022/09/22 06:49:15;;;;;;;26.45;13.68;;;;;;;8.57;100.00;101995.16;5065986;28;20052;-73
2022/09/22 06:51:41;;;;;;;26.08;13.75;;;;;;;8.69;100.00;102002.56;5052689;28;20171;-71
2022/09/22 06:54:07;;;;;;;23.10;12.75;;;;;;;8.67;100.00;101989.13;5054042;28;20049;-75
2022/09/22 06:56:41;;;;;;;24.23;13.98;;;;;;;8.83;100.00;102006.50;5067003;28;20378;-68
2022/09/22 06:59:12;;;;;;;25.08;13.60;;;;;;;8.92;100.00;102007.16;5059515;28;20063;-68
2022/09/22 07:01:40;;;;;;;24.13;13.70;;;;;;;9.00;100.00;102000.66;5056956;28;20041;-69
2022/09/22 07:04:07;;;;;;;26.35;14.50;;;;;;;9.10;100.00;101994.59;5066023;28;20406;-70
2022/09/22 07:06:36;;;;;;;25.75;14.20;;;;;;;9.18;100.00;102001.09;5064628;28;20071;-69
2022/09/22 07:09:03;;;;;;;28.02;14.30;;;;;;;9.29;100.00;102000.19;5066799;28;20056;-69
2022/09/22 07:11:30;;;;;;;26.52;15.18;;;;;;;9.39;100.00;102002.41;5061572;28;20060;-68
2022/09/22 07:13:57;;;;;;;26.45;14.07;;;;;;;9.45;100.00;101998.19;5066218;28;20052;-68
2022/09/22 07:16:25;;;;;;;26.63;13.02;;;;;;;9.61;100.00;102001.75;5063731;28;20409;-69
2022/09/22 07:18:54;;;;;;;27.35;14.43;;;;;;;9.68;100.00;101996.38;5063427;28;20052;-70
2022/09/22 07:21:34;;;;;;;24.88;12.52;;;;;;;9.85;100.00;102003.47;5064700;28;20412;-69
2022/09/22 07:24:01;;;;;;;23.10;12.40;;;;;;;9.97;100.00;101998.63;5060811;28;20056;-67
2022/09/22 07:26:35;;;;;;;21.40;12.63;;;;;;;10.09;100.00;101995.75;5065495;28;20508;-68
2022/09/22 07:29:10;;;;;;;28.38;12.65;;;;;;;10.22;100.00;101996.38;5066420;28;20626;-71
2022/09/22 07:31:36;;;;;;;22.38;11.77;;;;;;;10.34;100.00;101999.84;5066800;28;20401;-70
2022/09/22 07:34:03;;;;;;;21.73;11.40;;;;;;;10.45;100.00;101998.06;5064366;28;20103;-69
2022/09/22 07:36:31;;;;;;;27.05;11.85;;;;;;;10.57;100.00;101989.59;5066835;28;20052;-67
2022/09/22 07:39:06;;;;;;;20.15;10.70;;;;;;;10.70;100.00;101992.97;5061860;28;20532;-69
2022/09/22 07:41:40;;;;;;;18.95;10.60;;;;;;;10.82;100.00;102000.31;5070554;28;20049;-69
2022/09/22 07:47:00;;;;;;;17.98;9.65;;;;;;;11.10;100.00;101998.06;5062828;28;20053;-68
2022/09/22 07:49:28;;;;;;;22.05;9.40;;;;;;;11.18;100.00;101983.16;5070232;28;20143;-67
2022/09/22 07:51:56;;;;;;;22.75;9.88;;;;;;;11.36;100.00;101989.78;5069963;28;20045;-67
2022/09/22 07:54:24;;;;;;;21.80;9.65;;;;;;;11.49;100.00;101996.72;5068808;28;20131;-68
2022/09/22 07:56:57;;;;;;;20.30;10.27;;;;;;;11.59;100.00;101996.88;5060085;28;20060;-66
2022/09/22 07:59:24;;;;;;;22.88;9.35;;;;;;;11.73;100.00;101990.78;5069088;28;20057;-66
2022/09/22 08:01:51;;;;;;;17.25;9.15;;;;;;;11.85;100.00;101987.78;5068650;28;20049;-68
2022/09/22 08:04:21;;;;;;;17.80;9.00;;;;;;;11.98;100.00;101989.94;5067926;28;20058;-68
2022/09/22 08:06:53;;;;;;;28.13;9.77;;;;;;;12.06;100.00;101974.19;5061771;28;20109;-69
2022/09/22 08:09:20;;;;;;;21.25;8.90;;;;;;;12.29;100.00;101986.75;5069256;28;20061;-66
2022/09/22 08:11:47;;;;;;;17.17;8.07;;;;;;;12.43;100.00;101994.47;5066389;28;20044;-68
2022/09/22 08:14:16;;;;;;;16.92;7.55;;;;;;;12.55;100.00;101983.09;5058817;28;20044;-70
2022/09/22 08:16:44;;;;;;;17.02;8.43;;;;;;;12.66;100.00;101982.03;5069389;28;20052;-67
2022/09/22 08:19:12;;;;;;;14.60;6.82;;;;;;;12.82;100.00;101979.00;5069617;28;20049;-67
2022/09/22 08:21:43;;;;;;;16.80;7.18;;;;;;;12.97;100.00;101981.53;5060853;28;20060;-68
2022/09/22 08:24:20;;;;;;;18.02;7.43;;;;;;;13.07;100.00;101973.72;5046300;28;20556;-68
2022/09/22 08:26:51;;;;;;;12.60;6.40;;;;;;;13.25;100.00;101977.44;5046826;28;20053;-70
2022/09/22 08:29:19;;;;;;;19.50;6.50;;;;;;;13.35;100.00;101971.16;5046182;28;20045;-71
2022/09/22 08:31:46;;;;;;;14.43;6.03;;;;;;;13.51;100.00;101980.81;5046000;28;20048;-71
2022/09/22 08:34:15;;;;;;;15.13;5.55;;;;;;;13.66;100.00;101981.69;5048822;28;20059;-70
2022/09/22 08:36:45;;;;;;;16.40;6.47;;;;;;;13.72;100.00;101972.63;5050456;28;20052;-70
2022/09/22 08:39:13;;;;;;;17.95;6.68;;;;;;;13.91;100.00;101982.66;5050514;28;20076;-71
2022/09/22 08:42:09;;;;;;;13.20;5.82;;;;;;;14.08;100.00;101981.94;5044962;28;20048;-68
2022/09/22 08:44:56;;;;;;;14.65;5.55;;;;;;;14.24;100.00;101980.44;5047370;28;20044;-70
2022/09/22 08:53:12;;;;;;;12.57;5.15;;;;;;;14.80;100.00;101983.41;5046550;28;20044;-70
2022/09/22 08:55:42;;;;;;;16.05;5.70;;;;;;;14.96;100.00;101981.00;5048252;28;20048;-71
2022/09/22 08:58:27;;;;;;;17.13;6.05;;;;;;;15.11;100.00;101988.22;5045694;28;20060;-70
2022/09/22 09:01:02;;;;;;;13.80;4.63;;;;;;;15.23;100.00;101993.38;5047050;28;20158;-69
2022/09/22 09:04:14;;;;;;;15.45;4.72;;;;;;;15.40;100.00;101998.19;5048089;28;20068;-71
2022/09/22 09:06:56;;;;;;;12.60;4.78;;;;;;;15.66;100.00;101982.22;5047656;28;20059;-70
2022/09/22 09:09:31;;;;;;;12.25;4.70;;;;;;;15.78;100.00;101984.56;5043095;28;20052;-71
2022/09/22 09:12:17;;;;;;;8.87;3.57;;;;;;;16.00;100.00;101989.69;5046232;28;20044;-71
2022/09/22 09:15:03;;;;;;;11.07;3.50;;;;;;;16.01;96.78;101987.72;5045165;28;20040;-72
2022/09/22 09:17:34;;;;;;;13.85;3.97;;;;;;;16.25;100.00;101984.84;5043629;28;20053;-71
2022/09/22 09:20:15;;;;;;;8.80;4.10;;;;;;;16.38;96.10;101980.38;5045767;28;20891;-70
2022/09/22 09:22:47;;;;;;;7.78;3.85;;;;;;;16.59;97.03;101988.69;5044009;28;20081;-72
2022/09/22 09:25:18;;;;;;;11.20;4.03;;;;;;;16.65;91.34;101980.66;5041115;28;20055;-72
2022/09/22 09:27:55;;;;;;;11.65;4.38;;;;;;;16.74;88.39;101972.63;5048270;28;20808;-69
2022/09/22 09:30:23;;;;;;;8.25;3.88;;;;;;;16.83;85.67;101984.94;5049121;28;20059;-68
2022/09/22 09:33:21;;;;;;;10.88;4.70;;;;;;;17.06;88.25;101981.56;5047770;28;20052;-70
2022/09/22 09:35:50;;;;;;;16.40;4.35;;;;;;;17.21;86.28;101971.88;5043273;28;20064;-70
2022/09/22 09:38:30;;;;;;;9.88;3.97;;;;;;;17.51;87.65;101977.59;5047057;28;20849;-69
2022/09/22 09:41:16;;;;;;;8.15;3.30;;;;;;;17.80;86.93;101964.91;5039787;28;20252;-69
2022/09/22 09:43:44;;;;;;;7.28;3.70;;;;;;;18.05;86.96;101973.81;5046403;28;20159;-70
2022/09/22 09:46:25;;;;;;;10.13;3.67;;;;;;;18.27;86.36;101968.75;5048475;28;20060;-69
2022/09/22 09:49:15;;;;;;;8.55;3.25;;;;;;;18.03;70.88;101967.84;5042706;28;20048;-70
2022/09/22 09:51:46;;;;;;;11.85;3.55;;;;;;;18.02;73.96;101960.66;5046887;28;20044;-70
2022/09/22 09:54:15;;;;;;;11.50;3.85;;;;;;;18.08;69.43;101952.59;5047614;28;20052;-70
2022/09/22 09:57:04;;;;;;;7.97;3.25;;;;;;;18.10;71.39;101973.38;5046176;28;20098;-70
2022/09/22 10:02:21;;;;;;;;;;;;;;;18.33;67.13;101953.88;5037960;28;20044;-69
2022/09/22 10:04:50;;;;;;;5.60;2.70;;;;;;;18.51;69.76;101957.25;5036125;28;19931;-70
2022/09/22 10:07:39;;;;;;;2.05;0.95;;;;;;;18.43;60.65;101949.34;5050008;28;20059;-70
2022/09/22 10:10:27;;;;;;;4.68;1.63;;;;;;;18.57;60.89;101949.16;5047148;28;20055;-70
2022/09/22 10:13:03;;;;;;;4.63;1.92;;;;;;;18.72;61.86;101942.09;5044491;28;20052;-68
2022/09/22 10:15:38;;;;;;;4.65;1.92;;;;;;;18.89;62.56;101941.84;5047445;28;20048;-70
2022/09/22 10:18:39;;;;;;;2.00;1.00;;;;;;;18.73;56.69;101944.50;5046938;28;20162;-66
2022/09/22 10:21:16;;;;;;;3.92;1.63;;;;;;;18.81;56.91;101940.38;5041093;28;20048;-70
2022/09/22 10:23:48;;;;;;;4.43;1.83;;;;;;;19.01;59.54;101924.44;5043434;28;20475;-70
2022/09/22 10:26:26;;;;;;;6.00;1.70;;;;;;;19.16;55.92;101922.16;5044515;28;20049;-71
2022/09/22 10:29:11;;;;;;;3.53;1.63;;;;;;;19.26;51.75;101922.00;5044156;28;20790;-72
2022/09/22 10:31:59;;;;;;;2.13;1.40;;;;;;;19.39;53.78;101917.38;5042571;28;20048;-72
2022/09/22 10:34:36;;;;;;;2.97;1.35;;;;;;;19.68;53.10;101920.44;5044979;28;20052;-70
2022/09/22 10:37:09;;;;;;;4.03;1.60;;;;;;;19.75;53.13;101921.06;5046868;28;20689;-71
2022/09/22 10:39:47;;;;;;;8.52;1.90;;;;;;;19.92;52.27;101907.91;5048186;28;20230;-71
2022/09/22 10:42:39;;;;;;;3.83;1.60;;;;;;;20.29;55.13;101905.50;5044256;28;20052;-71
2022/09/22 10:45:12;;;;;;;5.80;2.10;;;;;;;20.63;55.13;101907.94;5040524;28;20051;-72
2022/09/22 10:48:02;;;;;;;2.85;1.40;;;;;;;20.93;52.76;101901.19;5046163;28;20048;-71
2022/09/22 10:50:52;;;;;;;4.53;1.52;;;;;;;20.90;47.79;101904.88;5043117;28;20056;-72
2022/09/22 10:53:21;;;;;;;4.45;1.30;;;;;;;20.78;46.91;101902.78;5044571;28;20535;-72
2022/09/22 10:55:54;;;;;;;3.85;1.60;;;;;;;20.61;48.13;101909.63;5046247;28;20068;-70
2022/09/22 10:58:39;;;;;;;5.15;1.30;;;;;;;20.49;48.60;101904.66;5046562;28;20052;-69
2022/09/22 11:01:38;;;;;;;2.40;1.27;;;;;;;20.09;47.96;101907.50;5045531;28;20871;-73
2022/09/22 11:04:14;;;;;;;5.18;0.90;;;;;;;19.99;47.79;101910.56;5044512;28;20049;-72
2022/09/22 11:12:36;;;;;;;1.70;1.08;;;;;;;20.75;45.39;101900.84;5048873;28;20056;-71
2022/09/22 11:15:31;;;;;;;5.38;1.42;;;;;;;21.21;45.77;101886.41;5048131;28;20057;-71
2022/09/22 11:18:20;;;;;;;5.43;1.52;;;;;;;21.76;47.78;101888.94;5047432;28;20062;-70
2022/09/22 11:20:55;;;;;;;2.65;1.15;;;;;;;22.24;43.24;101885.91;5042227;28;20044;-69
2022/09/22 11:23:36;;;;;;;4.07;1.27;;;;;;;22.25;43.61;101884.66;5040748;28;20308;-72
2022/09/22 11:26:31;;;;;;;3.55;1.40;;;;;;;22.60;42.27;101881.53;5041173;28;20059;-72
2022/09/22 11:29:25;;;;;;;2.38;1.05;;;;;;;22.85;41.88;101883.53;5038039;28;20055;-71
2022/09/22 11:32:13;;;;;;;3.05;1.27;;;;;;;23.40;42.62;101882.84;5043142;28;20816;-69
2022/09/22 11:35:32;;;;;;;2.88;1.15;;;;;;;22.98;39.05;101878.63;5045551;28;20053;-74
2022/09/22 11:38:24;;;;;;;1.90;0.60;;;;;;;22.43;38.07;101876.41;5033250;28;20060;-71
2022/09/22 11:41:05;;;;;;;1.40;0.70;;;;;;;22.27;37.48;101876.50;5044405;28;20053;-69
2022/09/22 11:43:43;;;;;;;3.97;1.23;;;;;;;22.86;38.52;101876.66;5057883;28;20243;-74
2022/09/22 11:46:35;;;;;;;3.70;1.73;;;;;;;23.47;39.13;101864.84;5041250;28;20835;-73
2022/09/22 11:49:38;;;;;;;0.60;0.57;;;;;;;22.97;36.42;101871.44;5041987;28;20044;-70
2022/09/22 11:52:14;;;;;;;6.15;1.05;;;;;;;22.21;38.90;101858.59;4967075;28;20050;-72
2022/09/22 11:55:04;;;;;;;5.47;1.50;;;;;;;22.36;40.48;101857.69;5038112;28;20053;-69
2022/09/22 11:57:35;;;;;;;3.47;1.50;;;;;;;22.89;40.73;101858.81;5040749;28;21035;-73
2022/09/22 12:00:15;;;;;;;4.28;1.45;;;;;;;23.08;39.01;101849.25;5045063;28;20288;-70